Time;durP1;ratioP1;P1;durP2;ratioP2;P2;SDS_P1;SDS_P2;PMS_P1;PMS_P2;Temp;Humidity;BMP_temperature;BMP_pressure;BME280_temperature;BME280_humidity;BME280_pressure;Samples;Min_cycle;Max_cycle;Signal;HPM_P1;HPM_P2
2023/03/18 00:02:06;;;;;;;6.25;3.13;;;;;;;;;;5079064;28;20032;-86
2023/03/18 00:04:32;;;;;;;7.20;2.40;;;;;;;;;;5043240;28;20416;-87
2023/03/18 00:06:58;;;;;;;4.07;2.30;;;;;;;;;;5060190;28;20044;-86
2023/03/18 00:09:24;;;;;;;3.33;2.03;;;;;;;;;;5060024;28;20032;-87
2023/03/18 00:11:49;;;;;;;8.63;3.03;;;;;;;;;;5060245;28;20040;-86
2023/03/18 00:14:15;;;;;;;5.63;2.83;;;;;;;;;;5077871;28;20044;-86
2023/03/18 00:16:41;;;;;;;7.47;2.75;;;;;;;;;;5078392;28;20078;-86
2023/03/18 00:19:07;;;;;;;3.97;2.35;;;;;;;;;;5044254;28;20044;-86
2023/03/18 00:21:33;;;;;;;4.47;2.50;;;;;;;;;;5078733;28;20044;-87
2023/03/18 00:23:59;;;;;;;3.60;2.03;;;;;;;;;;5060221;28;20085;-84
2023/03/18 00:26:27;;;;;;;4.40;2.28;;;;;;;;;;5061358;28;20062;-86
2023/03/18 00:28:57;;;;;;;3.85;2.40;;;;;;;;;;5060547;28;20036;-86
2023/03/18 00:31:23;;;;;;;3.67;2.20;;;;;;;;;;5043763;28;20070;-85
2023/03/18 00:33:49;;;;;;;3.20;2.15;;;;;;;;;;5045628;28;20024;-87
2023/03/18 00:36:17;;;;;;;7.18;2.70;;;;;;;;;;5047827;28;20036;-86
2023/03/18 00:38:45;;;;;;;6.00;3.20;;;;;;;;;;5063841;28;20040;-85
2023/03/18 00:41:14;;;;;;;9.77;3.58;;;;;;;;;;5082239;28;20032;-86
2023/03/18 00:43:54;;;;;;;4.53;2.90;;;;;;;;;;5064243;28;20044;-86
2023/03/18 00:46:25;;;;;;;4.57;2.30;;;;;;;;;;5046472;28;20131;-86
2023/03/18 00:48:52;;;;;;;4.78;2.30;;;;;;;;;;5063169;28;20505;-87
2023/03/18 00:51:19;;;;;;;5.03;2.47;;;;;;;;;;5063330;28;20032;-87
2023/03/18 00:53:47;;;;;;;2.80;1.90;;;;;;;;;;5063525;28;20047;-86
2023/03/18 00:56:14;;;;;;;4.35;1.98;;;;;;;;;;5046331;28;20068;-85
2023/03/18 00:58:40;;;;;;;3.28;1.90;;;;;;;;;;5063035;28;20119;-86
2023/03/18 01:01:07;;;;;;;3.08;1.77;;;;;;;;;;5062854;28;20067;-85
2023/03/18 01:03:34;;;;;;;2.42;1.70;;;;;;;;;;5062211;28;20036;-87
2023/03/18 01:06:01;;;;;;;4.93;1.80;;;;;;;;;;5061564;28;20041;-86
2023/03/18 01:08:29;;;;;;;2.80;1.70;;;;;;;;;;5062359;28;20099;-86
2023/03/18 01:10:55;;;;;;;3.08;1.50;;;;;;;;;;5045347;28;20373;-86
2023/03/18 01:13:21;;;;;;;3.05;1.40;;;;;;;;;;5061511;28;20032;-86
2023/03/18 01:15:47;;;;;;;2.22;1.30;;;;;;;;;;5044835;28;20028;-85
2023/03/18 01:18:13;;;;;;;3.60;1.45;;;;;;;;;;5078965;28;20067;-85
2023/03/18 01:20:38;;;;;;;3.03;1.30;;;;;;;;;;5061068;28;20047;-86
2023/03/18 01:23:07;;;;;;;2.67;1.10;;;;;;;;;;5061232;28;20059;-86
2023/03/18 01:25:33;;;;;;;1.77;1.08;;;;;;;;;;5061610;28;20036;-87
2023/03/18 01:27:59;;;;;;;2.25;1.10;;;;;;;;;;5043976;28;20038;-86
2023/03/18 01:30:24;;;;;;;2.28;1.30;;;;;;;;;;5061376;28;20037;-86
2023/03/18 01:32:53;;;;;;;2.80;1.38;;;;;;;;;;5044986;28;20091;-86
2023/03/18 01:35:19;;;;;;;3.47;1.85;;;;;;;;;;5044120;28;20039;-86
2023/03/18 01:37:47;;;;;;;3.33;1.30;;;;;;;;;;5060315;28;20039;-86
2023/03/18 01:40:14;;;;;;;2.92;1.20;;;;;;;;;;5061108;28;20033;-85
2023/03/18 01:42:41;;;;;;;3.90;1.20;;;;;;;;;;5044587;28;20123;-86
2023/03/18 01:45:27;;;;;;;2.97;1.30;;;;;;;;;;5044196;28;20066;-86
2023/03/18 01:47:57;;;;;;;2.10;1.20;;;;;;;;;;5078971;28;20037;-85
2023/03/18 01:50:35;;;;;;;3.70;1.23;;;;;;;;;;5060163;28;20056;-86
2023/03/18 01:53:05;;;;;;;3.45;1.30;;;;;;;;;;5059962;28;20025;-87
2023/03/18 01:55:32;;;;;;;2.00;1.20;;;;;;;;;;5043156;28;20037;-85
2023/03/18 01:58:02;;;;;;;4.10;1.30;;;;;;;;;;5059789;28;20123;-85
2023/03/18 02:00:27;;;;;;;1.80;1.20;;;;;;;;;;5058685;28;20032;-86
2023/03/18 02:02:53;;;;;;;3.00;1.50;;;;;;;;;;5043181;28;20052;-87
2023/03/18 02:05:23;;;;;;;3.85;1.30;;;;;;;;;;5059160;28;20547;-87
2023/03/18 02:07:50;;;;;;;2.83;1.40;;;;;;;;;;5058563;28;20443;-85
2023/03/18 02:10:28;;;;;;;1.98;1.27;;;;;;;;;;5058229;28;20036;-86
2023/03/18 02:12:59;;;;;;;3.00;1.30;;;;;;;;;;5060073;28;20033;-85
2023/03/18 02:15:32;;;;;;;3.55;1.30;;;;;;;;;;5059117;28;20036;-86
2023/03/18 02:18:09;;;;;;;3.85;1.17;;;;;;;;;;5059316;28;20140;-86
2023/03/18 02:20:56;;;;;;;2.38;1.55;;;;;;;;;;5059788;28;20036;-86
2023/03/18 02:24:01;;;;;;;5.57;1.40;;;;;;;;;;5059266;28;20120;-86
2023/03/18 02:26:49;;;;;;;2.40;1.20;;;;;;;;;;5057791;28;20062;-86
2023/03/18 02:29:22;;;;;;;8.02;1.50;;;;;;;;;;5043627;28;20039;-86
2023/03/18 02:31:56;;;;;;;2.22;1.33;;;;;;;;;;5043613;28;20381;-87
2023/03/18 02:34:25;;;;;;;4.22;1.40;;;;;;;;;;5042082;28;20025;-86
2023/03/18 02:36:54;;;;;;;2.00;1.13;;;;;;;;;;5058396;28;20496;-85
2023/03/18 02:39:21;;;;;;;2.75;1.40;;;;;;;;;;5042164;28;20059;-86
2023/03/18 02:41:47;;;;;;;3.33;1.45;;;;;;;;;;5058898;28;20032;-86
2023/03/18 02:44:13;;;;;;;4.00;1.48;;;;;;;;;;5058495;28;20044;-85
2023/03/18 02:46:56;;;;;;;2.95;1.65;;;;;;;;;;5057884;28;20063;-86
2023/03/18 02:49:26;;;;;;;2.35;1.35;;;;;;;;;;5042227;28;20037;-86
2023/03/18 02:51:55;;;;;;;2.22;1.30;;;;;;;;;;5042163;28;20029;-87
2023/03/18 02:54:24;;;;;;;2.17;1.40;;;;;;;;;;5060384;28;20028;-86
2023/03/18 02:56:50;;;;;;;2.85;1.40;;;;;;;;;;5059540;28;20082;-86
2023/03/18 02:59:17;;;;;;;4.57;1.55;;;;;;;;;;5059065;28;20028;-87
2023/03/18 03:01:45;;;;;;;2.42;1.40;;;;;;;;;;5042273;28;20032;-85
2023/03/18 03:04:12;;;;;;;2.83;1.50;;;;;;;;;;5042379;28;20100;-86
2023/03/18 03:06:40;;;;;;;1.92;1.30;;;;;;;;;;5059446;28;20033;-86
2023/03/18 03:09:07;;;;;;;2.15;1.35;;;;;;;;;;5060022;28;20058;-86
2023/03/18 03:11:35;;;;;;;3.22;1.45;;;;;;;;;;5046887;28;20041;-86
2023/03/18 03:14:09;;;;;;;3.63;1.50;;;;;;;;;;5038558;28;20082;-86
2023/03/18 03:16:36;;;;;;;2.30;1.45;;;;;;;;;;5040247;28;20120;-86
2023/03/18 03:19:03;;;;;;;2.75;1.13;;;;;;;;;;5057488;28;20078;-87
2023/03/18 03:21:29;;;;;;;3.17;1.60;;;;;;;;;;5039591;28;20040;-86
2023/03/18 03:23:55;;;;;;;5.78;1.55;;;;;;;;;;5022613;28;20037;-87
2023/03/18 03:26:21;;;;;;;3.35;1.17;;;;;;;;;;5038402;28;20029;-87
2023/03/18 03:28:47;;;;;;;2.70;1.40;;;;;;;;;;5040399;28;20068;-87
2023/03/18 03:31:13;;;;;;;2.42;1.58;;;;;;;;;;5042390;28;20119;-86
2023/03/18 03:33:40;;;;;;;2.25;1.50;;;;;;;;;;5059971;28;20040;-87
2023/03/18 03:36:11;;;;;;;2.03;1.35;;;;;;;;;;5024848;28;20489;-86
2023/03/18 03:38:37;;;;;;;4.18;1.42;;;;;;;;;;5041795;28;20044;-87
2023/03/18 03:41:04;;;;;;;1.88;1.23;;;;;;;;;;5060112;28;20056;-87
2023/03/18 03:43:30;;;;;;;2.42;1.20;;;;;;;;;;5041570;28;20040;-87
2023/03/18 03:45:56;;;;;;;2.65;1.40;;;;;;;;;;5041854;28;20041;-85
2023/03/18 03:48:21;;;;;;;3.25;1.40;;;;;;;;;;5042548;28;20048;-86
2023/03/18 03:50:49;;;;;;;3.35;1.30;;;;;;;;;;5042276;28;20044;-86
2023/03/18 03:53:15;;;;;;;3.70;1.40;;;;;;;;;;5041610;28;20040;-85
2023/03/18 03:55:41;;;;;;;3.42;1.45;;;;;;;;;;5024500;28;20417;-86
2023/03/18 03:58:08;;;;;;;2.15;1.40;;;;;;;;;;5024751;28;20027;-85
2023/03/18 04:00:35;;;;;;;2.22;1.40;;;;;;;;;;5041167;28;20043;-86
2023/03/18 04:03:00;;;;;;;3.03;1.20;;;;;;;;;;5041226;28;21386;-86
2023/03/18 04:05:26;;;;;;;3.58;1.50;;;;;;;;;;5040586;28;20082;-86
2023/03/18 04:07:53;;;;;;;2.53;1.40;;;;;;;;;;5041813;28;20135;-86
2023/03/18 04:10:27;;;;;;;2.67;1.65;;;;;;;;;;5041787;28;20437;-86
2023/03/18 04:12:53;;;;;;;2.90;1.60;;;;;;;;;;5023882;28;20047;-86
2023/03/18 04:15:20;;;;;;;3.50;1.88;;;;;;;;;;5032014;23;20046;-87
2023/03/18 04:17:49;;;;;;;4.75;1.50;;;;;;;;;;4993998;28;20031;-86
2023/03/18 04:20:17;;;;;;;2.58;1.58;;;;;;;;;;4994864;28;20031;-86
2023/03/18 04:22:44;;;;;;;4.72;1.65;;;;;;;;;;4978740;28;20030;-87
2023/03/18 04:25:11;;;;;;;3.08;1.83;;;;;;;;;;4994379;28;20042;-85
2023/03/18 04:27:39;;;;;;;4.05;1.60;;;;;;;;;;4995021;28;20044;-86
2023/03/18 04:30:08;;;;;;;3.20;1.60;;;;;;;;;;4994896;28;20038;-86
2023/03/18 04:32:43;;;;;;;6.88;3.13;;;;;;;;;;4995155;28;20027;-85
2023/03/18 04:35:09;;;;;;;3.20;1.80;;;;;;;;;;5010713;28;20089;-85
2023/03/18 04:37:36;;;;;;;3.45;1.60;;;;;;;;;;4994867;28;20034;-86
2023/03/18 04:40:04;;;;;;;6.47;1.70;;;;;;;;;;4994290;28;20495;-85
2023/03/18 04:42:30;;;;;;;2.65;1.60;;;;;;;;;;4995097;28;20065;-85
2023/03/18 04:44:55;;;;;;;2.50;1.60;;;;;;;;;;4997015;28;20057;-88
2023/03/18 04:47:21;;;;;;;2.55;1.60;;;;;;;;;;4998971;28;20046;-85
2023/03/18 04:49:49;;;;;;;3.38;1.58;;;;;;;;;;5010061;28;20030;-87
2023/03/18 04:52:15;;;;;;;3.35;1.58;;;;;;;;;;4993751;28;20495;-88
2023/03/18 04:54:41;;;;;;;2.13;1.50;;;;;;;;;;4994935;28;20038;-87
2023/03/18 04:57:07;;;;;;;4.15;1.80;;;;;;;;;;4993522;28;20124;-87
2023/03/18 04:59:37;;;;;;;5.80;1.40;;;;;;;;;;4993744;28;20407;-87
2023/03/18 05:02:05;;;;;;;5.40;1.70;;;;;;;;;;4993992;28;20408;-86
2023/03/18 05:04:32;;;;;;;2.90;1.67;;;;;;;;;;4993009;28;20085;-88
2023/03/18 05:06:58;;;;;;;4.63;1.55;;;;;;;;;;4993313;28;20066;-85
2023/03/18 05:09:30;;;;;;;3.65;1.50;;;;;;;;;;4993561;28;20034;-86
2023/03/18 05:11:56;;;;;;;2.92;1.40;;;;;;;;;;4993194;28;20510;-88
2023/03/18 05:14:30;;;;;;;4.28;1.50;;;;;;;;;;4992646;28;20125;-86
2023/03/18 05:16:57;;;;;;;3.05;1.65;;;;;;;;;;4992751;28;20040;-87
2023/03/18 05:19:24;;;;;;;3.95;1.50;;;;;;;;;;4992888;28;20125;-87
2023/03/18 05:22:03;;;;;;;2.72;1.50;;;;;;;;;;4992787;28;20506;-85
2023/03/18 05:24:29;;;;;;;3.13;1.45;;;;;;;;;;4999886;28;20098;-85
2023/03/18 05:26:54;;;;;;;3.95;1.70;;;;;;;;;;4994485;28;20076;-86
2023/03/18 05:29:24;;;;;;;2.85;1.48;;;;;;;;;;5010073;28;20133;-85
2023/03/18 05:31:56;;;;;;;2.70;1.27;;;;;;;;;;4994005;28;20038;-87
2023/03/18 05:34:23;;;;;;;2.63;1.42;;;;;;;;;;4993446;28;20034;-87
2023/03/18 05:36:50;;;;;;;3.90;1.38;;;;;;;;;;4995278;28;20037;-85
2023/03/18 05:39:16;;;;;;;3.60;1.50;;;;;;;;;;4993976;28;20034;-87
2023/03/18 05:41:42;;;;;;;7.40;1.50;;;;;;;;;;4994199;28;20052;-86
2023/03/18 05:44:10;;;;;;;4.93;1.80;;;;;;;;;;4993873;28;20418;-85
2023/03/18 05:46:38;;;;;;;3.00;1.63;;;;;;;;;;4995817;28;20041;-88
2023/03/18 05:49:10;;;;;;;2.90;1.70;;;;;;;;;;4997639;28;20060;-88
2023/03/18 05:51:59;;;;;;;3.47;1.40;;;;;;;;;;4987999;28;20519;-85
2023/03/18 05:54:42;;;;;;;3.35;1.55;;;;;;;;;;4992762;28;20034;-86
2023/03/18 05:57:08;;;;;;;3.10;1.60;;;;;;;;;;4992821;28;20554;-85
2023/03/18 05:59:34;;;;;;;7.85;2.42;;;;;;;;;;4994513;28;20057;-84
2023/03/18 06:02:01;;;;;;;2.95;1.60;;;;;;;;;;4992715;28;20045;-85
2023/03/18 06:04:26;;;;;;;3.88;1.48;;;;;;;;;;4992549;28;20044;-85
2023/03/18 06:06:52;;;;;;;3.17;1.40;;;;;;;;;;5007298;28;20120;-87
2023/03/18 06:09:18;;;;;;;3.25;1.50;;;;;;;;;;5012155;28;20033;-86
2023/03/18 06:11:45;;;;;;;2.67;1.60;;;;;;;;;;4995637;28;20040;-85
2023/03/18 06:14:11;;;;;;;2.70;1.55;;;;;;;;;;5012535;28;20034;-85
2023/03/18 06:16:37;;;;;;;3.70;1.70;;;;;;;;;;5011256;28;20041;-86
2023/03/18 06:19:03;;;;;;;3.58;1.55;;;;;;;;;;5012930;28;20053;-85
2023/03/18 06:21:31;;;;;;;2.80;1.60;;;;;;;;;;5011387;28;20528;-82
2023/03/18 06:23:57;;;;;;;3.83;1.77;;;;;;;;;;5010908;28;20030;-84
2023/03/18 06:26:24;;;;;;;3.15;1.88;;;;;;;;;;5011098;28;20075;-85
2023/03/18 06:28:50;;;;;;;3.03;1.50;;;;;;;;;;5011149;28;20038;-85
2023/03/18 06:31:16;;;;;;;2.97;1.50;;;;;;;;;;5027369;28;20398;-86
2023/03/18 06:33:42;;;;;;;3.15;1.60;;;;;;;;;;5010814;28;20034;-84
2023/03/18 06:36:10;;;;;;;4.15;1.70;;;;;;;;;;5020658;28;20037;-85
2023/03/18 06:38:43;;;;;;;4.40;1.70;;;;;;;;;;5029640;28;20505;-83
2023/03/18 06:41:10;;;;;;;4.55;1.50;;;;;;;;;;5029861;28;20037;-84
2023/03/18 06:43:39;;;;;;;2.60;1.42;;;;;;;;;;5013236;28;20120;-85
2023/03/18 06:46:05;;;;;;;1.60;1.10;;;;;;;;;;5013393;28;20129;-86
2023/03/18 06:48:31;;;;;;;2.17;1.38;;;;;;;;;;5014575;28;20034;-83
2023/03/18 06:50:57;;;;;;;4.80;1.77;;;;;;;;;;5019061;28;20029;-84
2023/03/18 06:53:29;;;;;;;4.05;1.70;;;;;;;;;;5011407;28;20026;-85
2023/03/18 06:55:55;;;;;;;3.03;1.50;;;;;;;;;;5011311;28;20037;-86
2023/03/18 06:58:24;;;;;;;4.82;1.52;;;;;;;;;;5011342;28;20038;-88
2023/03/18 07:01:01;;;;;;;3.95;1.63;;;;;;;;;;5012361;28;20509;-85
2023/03/18 07:03:33;;;;;;;3.85;1.50;;;;;;;;;;5013863;28;20076;-83
2023/03/18 07:06:00;;;;;;;2.75;1.45;;;;;;;;;;5015436;28;20056;-84
2023/03/18 07:08:25;;;;;;;2.40;1.55;;;;;;;;;;5017132;28;20029;-84
2023/03/18 07:10:52;;;;;;;2.72;1.52;;;;;;;;;;5016682;28;20452;-84
2023/03/18 07:13:19;;;;;;;2.75;1.58;;;;;;;;;;5015304;28;20057;-85
2023/03/18 07:15:45;;;;;;;3.17;1.50;;;;;;;;;;5031079;28;20038;-86
2023/03/18 07:18:11;;;;;;;4.88;1.83;;;;;;;;;;5015280;28;20041;-84
2023/03/18 07:20:37;;;;;;;3.35;1.75;;;;;;;;;;5016186;28;20045;-87
2023/03/18 07:23:03;;;;;;;3.80;1.75;;;;;;;;;;5016077;28;20107;-86
2023/03/18 07:25:30;;;;;;;5.22;1.90;;;;;;;;;;5017510;28;20152;-88
2023/03/18 07:27:56;;;;;;;3.05;1.50;;;;;;;;;;4999676;28;20080;-87
2023/03/18 07:30:22;;;;;;;7.93;1.77;;;;;;;;;;5015369;28;20121;-84
2023/03/18 07:32:48;;;;;;;2.78;1.55;;;;;;;;;;5016169;28;20126;-87
2023/03/18 07:35:14;;;;;;;2.95;1.30;;;;;;;;;;5015663;28;20025;-87
2023/03/18 07:37:40;;;;;;;4.40;1.80;;;;;;;;;;5017366;28;20076;-87
2023/03/18 07:40:08;;;;;;;2.42;1.60;;;;;;;;;;5017426;28;20038;-85
2023/03/18 07:42:33;;;;;;;3.85;1.63;;;;;;;;;;5021186;28;20038;-84
2023/03/18 07:44:59;;;;;;;4.45;1.60;;;;;;;;;;5024749;28;20109;-84
2023/03/18 07:47:25;;;;;;;2.95;1.58;;;;;;;;;;5027425;28;20026;-82
2023/03/18 07:49:53;;;;;;;4.32;2.45;;;;;;;;;;5034247;28;20045;-84
2023/03/18 07:52:18;;;;;;;5.78;3.38;;;;;;;;;;5025089;28;20402;-81
2023/03/18 07:54:44;;;;;;;7.50;3.30;;;;;;;;;;5016719;28;20026;-82
2023/03/18 07:57:10;;;;;;;13.20;6.00;;;;;;;;;;5018732;28;20030;-83
2023/03/18 07:59:36;;;;;;;11.05;5.57;;;;;;;;;;5019067;28;20057;-84
2023/03/18 08:02:03;;;;;;;8.95;3.47;;;;;;;;;;5017509;28;20133;-83
2023/03/18 08:04:30;;;;;;;6.55;2.85;;;;;;;;;;5016857;28;20030;-84
2023/03/18 08:06:56;;;;;;;6.85;2.20;;;;;;;;;;5024760;28;20026;-84
2023/03/18 08:09:22;;;;;;;5.65;1.65;;;;;;;;;;4998396;28;20039;-84
2023/03/18 08:11:48;;;;;;;5.60;1.52;;;;;;;;;;4995158;28;20041;-84
2023/03/18 08:14:13;;;;;;;7.32;1.63;;;;;;;;;;4995135;28;20038;-85
2023/03/18 08:16:39;;;;;;;4.47;1.70;;;;;;;;;;4997512;28;20045;-84
2023/03/18 08:19:05;;;;;;;11.18;1.70;;;;;;;;;;4997704;28;20098;-86
2023/03/18 08:21:30;;;;;;;3.60;1.60;;;;;;;;;;4998686;28;20030;-85
2023/03/18 08:23:56;;;;;;;3.60;1.50;;;;;;;;;;4998870;28;20040;-84
2023/03/18 08:26:22;;;;;;;5.10;1.50;;;;;;;;;;4997926;28;20042;-88
2023/03/18 08:28:47;;;;;;;2.90;1.40;;;;;;;;;;4999050;28;20041;-86
2023/03/18 08:31:13;;;;;;;8.85;1.25;;;;;;;;;;4999343;28;20038;-85
2023/03/18 08:33:40;;;;;;;2.13;1.30;;;;;;;;;;4997922;28;20030;-85
2023/03/18 08:36:07;;;;;;;7.72;1.48;;;;;;;;;;4997848;28;20065;-85
2023/03/18 08:38:33;;;;;;;2.17;1.20;;;;;;;;;;4998043;28;20033;-84
2023/03/18 08:40:58;;;;;;;4.45;1.48;;;;;;;;;;4998587;28;20439;-85
2023/03/18 08:43:24;;;;;;;5.50;1.30;;;;;;;;;;4998482;28;20038;-84
2023/03/18 08:45:54;;;;;;;3.83;1.70;;;;;;;;;;4998633;28;20049;-85
2023/03/18 08:48:21;;;;;;;4.20;1.67;;;;;;;;;;4997951;28;20030;-85
2023/03/18 08:50:47;;;;;;;6.47;1.50;;;;;;;;;;5013121;28;20057;-85
2023/03/18 08:53:14;;;;;;;3.50;1.70;;;;;;;;;;5019273;28;20026;-82
2023/03/18 08:55:40;;;;;;;4.32;1.50;;;;;;;;;;4993813;28;20034;-81
2023/03/18 08:58:07;;;;;;;3.53;1.40;;;;;;;;;;5010943;28;20146;-84
2023/03/18 09:00:35;;;;;;;4.63;1.60;;;;;;;;;;5005227;28;20038;-83
2023/03/18 09:03:02;;;;;;;5.47;1.65;;;;;;;;;;5011307;28;20069;-86
2023/03/18 09:05:29;;;;;;;5.68;1.50;;;;;;;;;;4996796;28;20058;-83
2023/03/18 09:07:55;;;;;;;2.90;1.38;;;;;;;;;;5012582;28;20073;-83
2023/03/18 09:10:20;;;;;;;2.75;1.40;;;;;;;;;;4994858;28;20513;-84
2023/03/18 09:12:46;;;;;;;5.57;1.60;;;;;;;;;;4995938;28;20034;-83
2023/03/18 09:15:13;;;;;;;1.98;1.30;;;;;;;;;;4996836;28;20040;-85
2023/03/18 09:17:39;;;;;;;2.38;1.30;;;;;;;;;;4997149;28;20073;-84
2023/03/18 09:20:07;;;;;;;3.08;1.40;;;;;;;;;;4997157;28;20038;-84
2023/03/18 09:22:33;;;;;;;4.82;1.60;;;;;;;;;;4996904;28;20038;-84
2023/03/18 09:24:59;;;;;;;5.03;1.60;;;;;;;;;;4994893;28;20038;-83
2023/03/18 09:27:24;;;;;;;3.95;1.50;;;;;;;;;;4995212;28;20550;-83
2023/03/18 09:29:53;;;;;;;5.40;1.60;;;;;;;;;;4995983;28;20491;-85
2023/03/18 09:32:18;;;;;;;4.57;1.50;;;;;;;;;;4995519;28;20030;-85
2023/03/18 09:34:44;;;;;;;4.22;1.42;;;;;;;;;;4995792;28;20037;-85
2023/03/18 09:37:10;;;;;;;5.47;1.80;;;;;;;;;;4995491;28;20569;-83
2023/03/18 09:39:36;;;;;;;6.30;1.90;;;;;;;;;;4999785;28;20098;-87
2023/03/18 09:42:27;;;;;;;3.60;1.60;;;;;;;;;;4984283;28;20076;-86
2023/03/18 09:44:57;;;;;;;4.95;1.33;;;;;;;;;;4982031;28;20050;-84
2023/03/18 09:47:50;;;;;;;4.13;1.60;;;;;;;;;;4999726;28;20046;-86
2023/03/18 09:50:38;;;;;;;7.55;1.60;;;;;;;;;;4998482;28;20038;-82
2023/03/18 09:53:10;;;;;;;5.72;2.20;;;;;;;;;;4990237;28;20438;-85
2023/03/18 09:55:46;;;;;;;5.88;1.73;;;;;;;;;;5004593;28;20061;-85
2023/03/18 09:58:41;;;;;;;3.53;1.60;;;;;;;;;;4994761;28;20057;-84
2023/03/18 10:01:10;;;;;;;4.30;1.83;;;;;;;;;;4993771;28;20034;-85
2023/03/18 10:03:42;;;;;;;7.50;2.47;;;;;;;;;;4993517;28;20110;-85
2023/03/18 10:06:16;;;;;;;5.40;2.08;;;;;;;;;;4993346;28;20030;-83
2023/03/18 10:09:10;;;;;;;3.17;1.70;;;;;;;;;;4993383;28;20069;-81
2023/03/18 10:11:45;;;;;;;3.65;1.65;;;;;;;;;;5001685;28;20034;-85
2023/03/18 10:17:08;;;;;;;7.68;2.45;;;;;;;;;;5031548;28;20154;-83
2023/03/18 10:19:35;;;;;;;5.80;2.40;;;;;;;;;;5033248;28;20056;-83
2023/03/18 10:22:18;;;;;;;4.88;2.08;;;;;;;;;;5033424;28;20116;-82
2023/03/18 10:25:17;;;;;;;3.30;1.63;;;;;;;;;;5033710;28;20436;-82
2023/03/18 10:28:04;;;;;;;8.38;2.53;;;;;;;;;;5033985;28;20468;-83
2023/03/18 10:30:37;;;;;;;8.88;2.17;;;;;;;;;;5033262;28;20038;-83
2023/03/18 10:33:30;;;;;;;5.23;2.33;;;;;;;;;;5033413;28;20043;-83
2023/03/18 10:36:11;;;;;;;4.13;2.00;;;;;;;;;;5034316;28;20268;-83
2023/03/18 10:38:41;;;;;;;4.75;1.90;;;;;;;;;;5033939;28;20037;-83
2023/03/18 10:41:28;;;;;;;5.03;2.05;;;;;;;;;;5034645;28;20092;-83
2023/03/18 10:43:54;;;;;;;6.70;2.70;;;;;;;;;;5016683;28;20088;-83
2023/03/18 10:46:21;;;;;;;3.80;1.75;;;;;;;;;;5034776;28;20033;-83
2023/03/18 10:48:49;;;;;;;4.40;2.42;;;;;;;;;;5034335;28;20037;-83
2023/03/18 10:51:37;;;;;;;3.95;1.95;;;;;;;;;;5034462;28;20072;-84
2023/03/18 10:54:18;;;;;;;5.35;1.90;;;;;;;;;;5040223;28;20051;-84
2023/03/18 10:56:44;;;;;;;3.35;1.77;;;;;;;;;;5046626;28;20121;-83
2023/03/18 10:59:12;;;;;;;4.72;2.05;;;;;;;;;;5046178;28;20034;-83
2023/03/18 11:01:38;;;;;;;4.00;1.73;;;;;;;;;;5044040;28;20029;-83
2023/03/18 11:04:08;;;;;;;5.13;2.10;;;;;;;;;;5043704;28;20081;-83
2023/03/18 11:06:42;;;;;;;6.72;2.80;;;;;;;;;;5033218;28;20124;-83
2023/03/18 11:09:11;;;;;;;7.03;2.30;;;;;;;;;;5034743;28;20057;-83
2023/03/18 11:11:41;;;;;;;6.47;2.30;;;;;;;;;;5034428;28;20068;-83
2023/03/18 11:14:14;;;;;;;5.20;1.95;;;;;;;;;;5032735;28;20084;-82
2023/03/18 11:16:44;;;;;;;4.28;2.00;;;;;;;;;;5034214;28;20033;-83
2023/03/18 11:19:40;;;;;;;6.10;2.17;;;;;;;;;;5034165;28;20034;-83
2023/03/18 11:22:09;;;;;;;10.43;3.47;;;;;;;;;;5033694;28;20029;-83
2023/03/18 11:24:43;;;;;;;7.75;3.10;;;;;;;;;;5033418;28;20041;-83
2023/03/18 11:27:15;;;;;;;3.58;1.70;;;;;;;;;;5034161;28;20037;-83
2023/03/18 11:29:49;;;;;;;3.25;1.70;;;;;;;;;;5034316;28;20397;-83
2023/03/18 11:32:23;;;;;;;3.85;1.70;;;;;;;;;;5033710;28;20041;-83
2023/03/18 11:35:03;;;;;;;4.75;1.73;;;;;;;;;;5032157;28;20482;-83
2023/03/18 11:37:38;;;;;;;4.78;1.70;;;;;;;;;;5034240;28;20113;-83
2023/03/18 11:40:13;;;;;;;5.03;2.13;;;;;;;;;;5032662;28;20040;-84
2023/03/18 11:42:40;;;;;;;10.43;2.05;;;;;;;;;;5033693;28;20574;-84
2023/03/18 11:45:25;;;;;;;4.53;1.75;;;;;;;;;;5033823;28;20036;-84
2023/03/18 11:47:52;;;;;;;6.93;1.80;;;;;;;;;;5016915;28;20482;-83
2023/03/18 11:50:20;;;;;;;5.30;2.00;;;;;;;;;;5016903;28;20057;-84
2023/03/18 11:52:57;;;;;;;5.93;1.85;;;;;;;;;;5017527;28;20629;-84
2023/03/18 11:55:29;;;;;;;10.43;3.80;;;;;;;;;;5017581;28;20049;-84
2023/03/18 11:57:58;;;;;;;5.20;1.73;;;;;;;;;;5016433;28;20034;-83
2023/03/18 12:01:05;;;;;;;5.25;1.77;;;;;;;;;;5017235;28;20371;-84
2023/03/18 12:04:00;;;;;;;3.90;1.85;;;;;;;;;;4957024;29;20178;-85
2023/03/18 12:06:28;;;;;;;4.82;1.70;;;;;;;;;;4955703;29;20086;-86
2023/03/18 12:09:08;;;;;;;5.43;1.60;;;;;;;;;;4999045;28;20450;-84
2023/03/18 12:11:43;;;;;;;5.45;1.60;;;;;;;;;;5017861;28;20046;-84
2023/03/18 12:14:15;;;;;;;5.40;2.05;;;;;;;;;;5016169;28;20061;-83
2023/03/18 12:17:16;;;;;;;5.90;2.20;;;;;;;;;;5017808;28;20125;-83
2023/03/18 12:20:05;;;;;;;5.32;1.88;;;;;;;;;;4996184;28;20525;-83
2023/03/18 12:22:39;;;;;;;5.43;1.90;;;;;;;;;;5017404;28;20134;-83
2023/03/18 12:25:17;;;;;;;4.18;1.80;;;;;;;;;;5016814;28;20037;-83
2023/03/18 12:27:47;;;;;;;6.32;2.00;;;;;;;;;;5016534;28;20084;-83
2023/03/18 12:31:03;;;;;;;3.72;1.75;;;;;;;;;;5017502;28;20037;-83
2023/03/18 12:33:57;;;;;;;5.68;1.95;;;;;;;;;;4972959;28;20398;-84
2023/03/18 12:36:38;;;;;;;8.02;2.15;;;;;;;;;;5017621;28;20037;-84
2023/03/18 12:39:41;;;;;;;6.55;2.50;;;;;;;;;;5016539;28;20049;-84
2023/03/18 12:42:47;;;;;;;5.80;2.30;;;;;;;;;;5017339;28;20483;-84
2023/03/18 12:45:18;;;;;;;8.43;2.53;;;;;;;;;;4983797;28;20081;-84
2023/03/18 12:48:02;;;;;;;7.75;2.72;;;;;;;;;;5017231;28;20095;-84
2023/03/18 12:50:40;;;;;;;6.15;2.42;;;;;;;;;;5017406;28;20034;-84
2023/03/18 12:53:20;;;;;;;8.52;2.78;;;;;;;;;;5017451;28;20711;-84
2023/03/18 12:55:50;;;;;;;5.93;2.50;;;;;;;;;;5016516;28;20148;-84
2023/03/18 12:58:25;;;;;;;9.30;2.50;;;;;;;;;;5015698;28;20375;-84
2023/03/18 13:01:26;;;;;;;7.68;2.60;;;;;;;;;;5017109;28;20068;-84
2023/03/18 13:03:57;;;;;;;7.68;2.80;;;;;;;;;;4956094;29;20062;-84
2023/03/18 13:06:38;;;;;;;7.75;2.78;;;;;;;;;;5006356;28;20069;-84
2023/03/18 13:09:25;;;;;;;5.43;2.58;;;;;;;;;;5017121;28;20049;-84
2023/03/18 13:12:03;;;;;;;6.63;2.80;;;;;;;;;;5015796;28;20077;-84
2023/03/18 13:14:42;;;;;;;4.25;2.58;;;;;;;;;;5016350;28;20076;-84
2023/03/18 13:17:22;;;;;;;8.52;2.50;;;;;;;;;;5016356;28;20474;-84
2023/03/18 13:19:48;;;;;;;9.63;3.22;;;;;;;;;;5016841;28;20042;-84
2023/03/18 13:22:32;;;;;;;5.90;2.70;;;;;;;;;;5015246;28;20071;-84
2023/03/18 13:25:04;;;;;;;;;;;;;;;;;;5015029;28;20038;-82
2023/03/18 13:27:33;;;;;;;8.05;2.88;;;;;;;;;;5016296;28;19953;-84
2023/03/18 13:30:14;;;;;;;6.50;2.60;;;;;;;;;;5015131;28;20502;-83
2023/03/18 13:33:02;;;;;;;5.57;2.50;;;;;;;;;;5015579;28;20059;-84
2023/03/18 13:35:49;;;;;;;6.47;2.88;;;;;;;;;;5016769;28;20029;-85
2023/03/18 13:38:29;;;;;;;5.18;2.30;;;;;;;;;;5015830;28;20470;-84
2023/03/18 13:41:24;;;;;;;6.20;2.72;;;;;;;;;;5014628;28;20038;-84
2023/03/18 13:43:51;;;;;;;6.03;2.60;;;;;;;;;;5015102;28;20429;-84
2023/03/18 13:46:24;;;;;;;6.55;2.60;;;;;;;;;;5015040;28;20029;-84
2023/03/18 13:48:54;;;;;;;;;;;;;;;;;;5016895;28;20073;-82
2023/03/18 13:51:22;;;;;;;5.75;2.75;;;;;;;;;;5015465;28;20011;-84
2023/03/18 13:53:50;;;;;;;6.47;2.50;;;;;;;;;;5016529;28;20033;-84
2023/03/18 13:56:42;;;;;;;6.50;2.40;;;;;;;;;;5015476;28;20026;-84
2023/03/18 13:59:32;;;;;;;4.45;2.13;;;;;;;;;;5015498;28;20088;-85
2023/03/18 14:02:18;;;;;;;7.43;2.00;;;;;;;;;;5015189;28;20052;-84
2023/03/18 14:04:47;;;;;;;5.03;2.10;;;;;;;;;;5015748;28;20471;-85
2023/03/18 14:07:20;;;;;;;4.80;2.30;;;;;;;;;;5016527;28;20061;-85
2023/03/18 14:09:49;;;;;;;;;;;;;;;;;;5016962;28;20040;-82
2023/03/18 14:12:20;;;;;;;5.30;1.95;;;;;;;;;;5015237;28;19920;-84
2023/03/18 14:14:55;;;;;;;4.78;2.03;;;;;;;;;;5015264;28;20176;-84
2023/03/18 14:17:48;;;;;;;7.65;2.42;;;;;;;;;;5001756;28;20037;-84
2023/03/18 14:20:13;;;;;;;5.85;2.22;;;;;;;;;;5017138;28;20042;-84
2023/03/18 14:22:39;;;;;;;10.18;2.50;;;;;;;;;;5017312;28;20117;-84
2023/03/18 14:25:18;;;;;;;6.57;2.25;;;;;;;;;;5017648;28;20036;-84
2023/03/18 14:28:15;;;;;;;8.23;2.70;;;;;;;;;;5017568;28;20052;-84
2023/03/18 14:30:46;;;;;;;8.35;2.70;;;;;;;;;;5015610;28;20033;-85
2023/03/18 14:33:11;;;;;;;6.22;2.28;;;;;;;;;;5015388;28;20033;-82
2023/03/18 14:35:57;;;;;;;6.63;2.60;;;;;;;;;;5015063;28;20097;-84
2023/03/18 14:38:48;;;;;;;6.18;2.90;;;;;;;;;;5015110;28;20038;-84
2023/03/18 14:41:20;;;;;;;7.60;3.03;;;;;;;;;;5015880;28;20061;-84
2023/03/18 14:44:19;;;;;;;5.70;2.53;;;;;;;;;;5015759;28;20042;-84
2023/03/18 14:46:46;;;;;;;5.70;2.58;;;;;;;;;;5015386;28;20033;-83
2023/03/18 14:49:51;;;;;;;6.63;2.53;;;;;;;;;;5015280;28;20322;-81
2023/03/18 14:52:37;;;;;;;7.70;2.78;;;;;;;;;;5017554;28;20095;-82
2023/03/18 14:55:36;;;;;;;6.43;2.58;;;;;;;;;;5015320;28;20045;-83
2023/03/18 14:58:02;;;;;;;6.88;2.83;;;;;;;;;;4982618;28;20097;-83
2023/03/18 15:00:32;;;;;;;10.45;2.90;;;;;;;;;;5014522;28;20137;-83
2023/03/18 15:03:21;;;;;;;6.05;2.90;;;;;;;;;;5013642;28;20038;-83
2023/03/18 15:05:47;;;;;;;6.93;3.08;;;;;;;;;;5013915;28;20064;-83
2023/03/18 15:08:17;;;;;;;6.13;2.63;;;;;;;;;;5015579;28;20037;-83
2023/03/18 15:10:46;;;;;;;6.95;2.83;;;;;;;;;;5014612;28;20673;-82
2023/03/18 15:13:15;;;;;;;5.90;3.00;;;;;;;;;;4997027;28;20058;-84